Airfield :







YOU CAN JOIN US ON...

 
LOGIN :

Register | Disclaimer

   EN    FR    IT 

 









Legend :    VFR   Marginal VFR   IFR   Intensive IFR   Very Intensive IFR
Visi :
Ceiling :
>= 8 km
>= 3000ft
5 to 8 km
1000 to 3000 ft
1500m to 5 km
500 to 1000 ft
800 to 1500m
200 to 500 ft
< 800m
< 200 ft
Symbols :   Thunderstorms  Fog  Heavy snow  Heavy precipitations  Wind > 20 kt






- Airport Elevation : 110 ft
- IATA code : YFB


CYFB - Iqaluit

CURRENT METAR :
  • 290600Z 29013KT 15SM SKC M20/M23 A3008 RMK SLP190

EXPIRED METARs :
  • 290500Z 30011KT 15SM SKC M19/M23 A3008 RMK SLP191
  • 290400Z 31017KT 15SM FEW012 M19/M22 A3007 RMK SC1 SLP188

TAF TAF CYFB
Valid from the 29 at 06:00 until the 30 at 06:00 UTC


290538Z 2906/3006 33018KT P6SM SKC
BECMG 2913/2915 33010KT
FM291800 33005KT P6SM BKN210
FM292100 15010KT P6SM BKN140 RMK NXT FCST BY 291200Z



MET'MAP, your aeronautical weather chart ! - Copyright ORBIFLY December 2007 - Disclaimer

ORBIFLY MET'MAP TEAM :

Programming & Development : Alexandra Zaïnal
Concept & original design : Baudouin d'Aumeries
Assistance for programming : Marc-Olivier Méhu
Technical & hardware support : Manuel Goepfert

Contact : metmap@orbifly.com




SOURCES & CREDITS :

   NOAA